Much Wenlock, United Kingdom
Current Conditions -  °F | °C
As of 7:50 AM on Sunday 26 Oct 2014 (Local Time) from EGOS Reporting Station
Broken Clouds Broken Clouds  
Wind Chill: 55°   Ceiling: 3200
Heat Index: 55°   Visibility: 6mi
Dew Point: 46°   Wind: 14mph
Humidity: 72%   Direction: 200°SSW
Pressure: 30"   Gusts: NA
Location:  52.6°N, 2.56°W
Report Text: EGOS 260650Z AUTO 20012KT 9999 BKN032/// 13/08 Q1016
Loading
Personal Weather Stations






























Interactive Weather Map
Tropical Storm Tracking
New forecast layout! Learn more

10-Day Weather Forecast

Advertisements
Track Severe Weather on mobile